sensor_id;sensor_type;location;lat;lon;timestamp;pressure;altitude;pressure_sealevel;temperature;humidity
38033;BME280;23841;48.524;1.342;2023-08-30T00:00:58;98738.13;;;19.48;53.39
38033;BME280;23841;48.524;1.342;2023-08-30T00:03:23;98727.34;;;19.48;53.36
38033;BME280;23841;48.524;1.342;2023-08-30T00:05:49;98724.66;;;19.48;53.48
38033;BME280;23841;48.524;1.342;2023-08-30T00:08:16;98732.75;;;19.48;53.35
38033;BME280;23841;48.524;1.342;2023-08-30T00:10:46;98728.19;;;19.48;53.36
38033;BME280;23841;48.524;1.342;2023-08-30T00:13:12;98723.88;;;19.45;53.48
38033;BME280;23841;48.524;1.342;2023-08-30T00:15:38;98721.19;;;19.45;53.44
38033;BME280;23841;48.524;1.342;2023-08-30T00:18:04;98722.91;;;19.47;53.41
38033;BME280;23841;48.524;1.342;2023-08-30T00:20:32;98714.84;;;19.47;53.56
38033;BME280;23841;48.524;1.342;2023-08-30T00:23:02;98721.19;;;19.45;53.50
38033;BME280;23841;48.524;1.342;2023-08-30T00:25:31;98721.19;;;19.45;53.54
38033;BME280;23841;48.524;1.342;2023-08-30T00:27:57;98723.88;;;19.45;53.60
38033;BME280;23841;48.524;1.342;2023-08-30T00:30:24;98718.59;;;19.44;53.52
38033;BME280;23841;48.524;1.342;2023-08-30T00:32:51;98711.41;;;19.44;53.50
38033;BME280;23841;48.524;1.342;2023-08-30T00:35:17;98706.03;;;19.44;53.49
38033;BME280;23841;48.524;1.342;2023-08-30T00:37:44;98707.72;;;19.45;53.39
38033;BME280;23841;48.524;1.342;2023-08-30T00:40:10;98704.28;;;19.43;53.53
38033;BME280;23841;48.524;1.342;2023-08-30T00:42:36;98704.28;;;19.43;53.52
38033;BME280;23841;48.524;1.342;2023-08-30T00:45:03;98699.75;;;19.44;53.66
38033;BME280;23841;48.524;1.342;2023-08-30T00:47:29;98698.91;;;19.43;53.54
38033;BME280;23841;48.524;1.342;2023-08-30T00:49:55;98694.38;;;19.44;53.63
38033;BME280;23841;48.524;1.342;2023-08-30T00:52:20;98693.50;;;19.43;53.65
38033;BME280;23841;48.524;1.342;2023-08-30T00:54:46;98697.94;;;19.44;53.58
38033;BME280;23841;48.524;1.342;2023-08-30T00:57:12;98685.44;;;19.43;53.44
38033;BME280;23841;48.524;1.342;2023-08-30T00:59:38;98682.75;;;19.43;53.53
38033;BME280;23841;48.524;1.342;2023-08-30T01:02:04;98685.44;;;19.43;53.64
38033;BME280;23841;48.524;1.342;2023-08-30T01:04:31;98679.28;;;19.41;53.66
38033;BME280;23841;48.524;1.342;2023-08-30T01:06:58;98673.88;;;19.41;53.51
38033;BME280;23841;48.524;1.342;2023-08-30T01:09:27;98672.06;;;19.42;53.51
38033;BME280;23841;48.524;1.342;2023-08-30T01:12:13;98673.88;;;19.41;53.63
38033;BME280;23841;48.524;1.342;2023-08-30T01:15:00;98661.31;;;19.42;53.68
38033;BME280;23841;48.524;1.342;2023-08-30T01:17:32;98663.13;;;19.41;53.77
38033;BME280;23841;48.524;1.342;2023-08-30T01:20:07;98657.72;;;19.41;53.68
38033;BME280;23841;48.524;1.342;2023-08-30T01:28:48;98656.03;;;19.40;53.60
38033;BME280;23841;48.524;1.342;2023-08-30T01:31:15;98664.09;;;19.40;53.79
38033;BME280;23841;48.524;1.342;2023-08-30T01:33:44;98656.97;;;19.39;53.82
38033;BME280;23841;48.524;1.342;2023-08-30T01:36:14;98653.34;;;19.40;53.85
38033;BME280;23841;48.524;1.342;2023-08-30T01:38:40;98654.28;;;19.39;53.62
38033;BME280;23841;48.524;1.342;2023-08-30T01:41:08;98648.06;;;19.39;53.63
38033;BME280;23841;48.524;1.342;2023-08-30T01:43:36;98650.63;;;19.40;53.84
38033;BME280;23841;48.524;1.342;2023-08-30T01:46:04;98645.25;;;19.40;53.63
38033;BME280;23841;48.524;1.342;2023-08-30T01:48:32;98644.38;;;19.40;53.67
38033;BME280;23841;48.524;1.342;2023-08-30T01:51:00;98636.41;;;19.38;53.53
38033;BME280;23841;48.524;1.342;2023-08-30T01:53:28;98644.38;;;19.40;53.59
38033;BME280;23841;48.524;1.342;2023-08-30T01:55:55;98641.78;;;19.38;53.69
38033;BME280;23841;48.524;1.342;2023-08-30T01:58:21;98642.66;;;19.39;53.77
38033;BME280;23841;48.524;1.342;2023-08-30T02:00:47;98637.28;;;19.39;53.69
38033;BME280;23841;48.524;1.342;2023-08-30T02:03:14;98644.47;;;19.38;53.63
38033;BME280;23841;48.524;1.342;2023-08-30T02:05:47;98640.09;;;19.37;53.74
38033;BME280;23841;48.524;1.342;2023-08-30T02:08:15;98638.25;;;19.38;53.71
38033;BME280;23841;48.524;1.342;2023-08-30T02:10:56;98635.56;;;19.38;53.83
38033;BME280;23841;48.524;1.342;2023-08-30T02:13:28;98640.94;;;19.38;53.66
38033;BME280;23841;48.524;1.342;2023-08-30T02:15:55;98636.50;;;19.37;53.71
38033;BME280;23841;48.524;1.342;2023-08-30T02:18:23;98629.38;;;19.36;53.74
38033;BME280;23841;48.524;1.342;2023-08-30T02:20:49;98633.81;;;19.37;53.96
38033;BME280;23841;48.524;1.342;2023-08-30T02:23:14;98627.59;;;19.36;53.79
38033;BME280;23841;48.524;1.342;2023-08-30T02:25:40;98628.44;;;19.37;53.69
38033;BME280;23841;48.524;1.342;2023-08-30T02:28:05;98619.50;;;19.36;53.68
38033;BME280;23841;48.524;1.342;2023-08-30T02:30:31;98626.69;;;19.36;53.80
38033;BME280;23841;48.524;1.342;2023-08-30T02:32:56;98615.94;;;19.36;53.70
38033;BME280;23841;48.524;1.342;2023-08-30T02:35:21;98617.78;;;19.35;53.84
38033;BME280;23841;48.524;1.342;2023-08-30T02:37:47;98613.22;;;19.36;53.67
38033;BME280;23841;48.524;1.342;2023-08-30T02:40:12;98608.84;;;19.35;53.76
38033;BME280;23841;48.524;1.342;2023-08-30T02:42:38;98615.06;;;19.35;53.86
38033;BME280;23841;48.524;1.342;2023-08-30T02:45:03;98604.31;;;19.35;53.74
38033;BME280;23841;48.524;1.342;2023-08-30T02:47:29;98603.44;;;19.35;53.78
38033;BME280;23841;48.524;1.342;2023-08-30T02:49:54;98598.06;;;19.35;54.01
38033;BME280;23841;48.524;1.342;2023-08-30T02:52:20;98595.38;;;19.35;53.98
38033;BME280;23841;48.524;1.342;2023-08-30T02:54:45;98598.06;;;19.35;53.73
38033;BME280;23841;48.524;1.342;2023-08-30T02:57:11;98599.88;;;19.34;53.73
38033;BME280;23841;48.524;1.342;2023-08-30T02:59:36;98595.38;;;19.35;53.73
38033;BME280;23841;48.524;1.342;2023-08-30T03:02:02;98593.66;;;19.34;53.84
38033;BME280;23841;48.524;1.342;2023-08-30T03:04:27;98598.06;;;19.35;53.80
38033;BME280;23841;48.524;1.342;2023-08-30T03:06:58;98595.38;;;19.35;54.04
38033;BME280;23841;48.524;1.342;2023-08-30T03:09:25;98594.50;;;19.34;53.74
38033;BME280;23841;48.524;1.342;2023-08-30T03:11:51;98595.50;;;19.33;53.99
38033;BME280;23841;48.524;1.342;2023-08-30T03:14:20;98590.09;;;19.33;54.04
38033;BME280;23841;48.524;1.342;2023-08-30T03:16:48;98590.09;;;19.33;53.77
38033;BME280;23841;48.524;1.342;2023-08-30T03:19:18;98594.50;;;19.34;53.99
38033;BME280;23841;48.524;1.342;2023-08-30T03:21:46;98587.41;;;19.33;53.88
38033;BME280;23841;48.524;1.342;2023-08-30T03:24:12;98583.84;;;19.33;54.01
38033;BME280;23841;48.524;1.342;2023-08-30T03:26:39;98588.38;;;19.32;54.09
38033;BME280;23841;48.524;1.342;2023-08-30T03:29:06;98582.09;;;19.32;54.08
38033;BME280;23841;48.524;1.342;2023-08-30T03:31:31;98577.59;;;19.32;54.03
38033;BME280;23841;48.524;1.342;2023-08-30T03:33:58;98572.22;;;19.32;53.93
38033;BME280;23841;48.524;1.342;2023-08-30T03:36:24;98572.22;;;19.32;53.88
38033;BME280;23841;48.524;1.342;2023-08-30T03:38:51;98567.69;;;19.33;53.99
38033;BME280;23841;48.524;1.342;2023-08-30T03:41:18;98565.94;;;19.32;54.02
38033;BME280;23841;48.524;1.342;2023-08-30T03:43:44;98570.47;;;19.31;54.00
38033;BME280;23841;48.524;1.342;2023-08-30T03:46:10;98572.22;;;19.32;53.90
38033;BME280;23841;48.524;1.342;2023-08-30T03:48:37;98570.38;;;19.33;54.20
38033;BME280;23841;48.524;1.342;2023-08-30T03:51:05;98575.88;;;19.31;54.01
38033;BME280;23841;48.524;1.342;2023-08-30T03:53:31;98583.94;;;19.31;53.94
38033;BME280;23841;48.524;1.342;2023-08-30T03:55:57;98579.53;;;19.30;53.97
38033;BME280;23841;48.524;1.342;2023-08-30T03:58:26;98583.94;;;19.31;54.24
38033;BME280;23841;48.524;1.342;2023-08-30T04:00:56;98575.88;;;19.31;54.13
38033;BME280;23841;48.524;1.342;2023-08-30T04:03:22;98583.09;;;19.31;53.98
38033;BME280;23841;48.524;1.342;2023-08-30T04:05:54;98574.13;;;19.30;54.05
38033;BME280;23841;48.524;1.342;2023-08-30T04:08:25;98568.75;;;19.30;53.89
38033;BME280;23841;48.524;1.342;2023-08-30T04:10:55;98563.38;;;19.30;54.22
38033;BME280;23841;48.524;1.342;2023-08-30T04:13:24;98570.69;;;19.28;54.10
38033;BME280;23841;48.524;1.342;2023-08-30T04:15:50;98567.03;;;19.29;54.04
38033;BME280;23841;48.524;1.342;2023-08-30T04:18:19;98565.31;;;19.28;54.12
38033;BME280;23841;48.524;1.342;2023-08-30T04:20:47;98566.16;;;19.28;54.25
38033;BME280;23841;48.524;1.342;2023-08-30T04:23:13;98565.31;;;19.28;54.14
38033;BME280;23841;48.524;1.342;2023-08-30T04:25:40;98561.66;;;19.29;54.09
38033;BME280;23841;48.524;1.342;2023-08-30T04:28:06;98559.03;;;19.27;54.30
38033;BME280;23841;48.524;1.342;2023-08-30T04:30:32;98560.66;;;19.30;54.12
38033;BME280;23841;48.524;1.342;2023-08-30T04:33:00;98562.63;;;19.28;54.04
38033;BME280;23841;48.524;1.342;2023-08-30T04:35:29;98554.53;;;19.28;54.35
38033;BME280;23841;48.524;1.342;2023-08-30T04:37:55;98550.97;;;19.27;54.07
38033;BME280;23841;48.524;1.342;2023-08-30T04:40:21;98550.13;;;19.27;54.36
38033;BME280;23841;48.524;1.342;2023-08-30T04:42:51;98554.53;;;19.28;54.26
38033;BME280;23841;48.524;1.342;2023-08-30T04:45:20;98559.94;;;19.28;54.30
38033;BME280;23841;48.524;1.342;2023-08-30T04:47:46;98559.03;;;19.27;54.35
38033;BME280;23841;48.524;1.342;2023-08-30T04:50:11;98557.34;;;19.26;54.37
38033;BME280;23841;48.524;1.342;2023-08-30T04:52:37;98557.22;;;19.28;54.21
38033;BME280;23841;48.524;1.342;2023-08-30T04:55:03;98570.69;;;19.28;54.19
38033;BME280;23841;48.524;1.342;2023-08-30T04:57:29;98558.19;;;19.27;54.31
38033;BME280;23841;48.524;1.342;2023-08-30T04:59:55;98562.72;;;19.26;54.34
38033;BME280;23841;48.524;1.342;2023-08-30T05:02:31;98573.38;;;19.28;54.39
38033;BME280;23841;48.524;1.342;2023-08-30T05:04:59;98567.22;;;19.26;54.35
38033;BME280;23841;48.524;1.342;2023-08-30T05:07:25;98568.13;;;19.26;54.25
38033;BME280;23841;48.524;1.342;2023-08-30T05:09:51;98571.78;;;19.25;54.06
38033;BME280;23841;48.524;1.342;2023-08-30T05:12:17;98578.88;;;19.26;54.18
38033;BME280;23841;48.524;1.342;2023-08-30T05:14:44;98580.69;;;19.26;54.12
38033;BME280;23841;48.524;1.342;2023-08-30T05:17:11;98583.38;;;19.26;54.20
38033;BME280;23841;48.524;1.342;2023-08-30T05:19:39;98572.63;;;19.26;54.40
38033;BME280;23841;48.524;1.342;2023-08-30T05:22:06;98575.31;;;19.26;54.46
38033;BME280;23841;48.524;1.342;2023-08-30T05:24:33;98576.31;;;19.25;54.46
38033;BME280;23841;48.524;1.342;2023-08-30T05:26:59;98578.00;;;19.26;54.33
38033;BME280;23841;48.524;1.342;2023-08-30T05:29:25;98585.22;;;19.25;54.28
38033;BME280;23841;48.524;1.342;2023-08-30T05:31:50;98587.06;;;19.25;54.47
38033;BME280;23841;48.524;1.342;2023-08-30T05:34:17;98577.16;;;19.25;54.64
38033;BME280;23841;48.524;1.342;2023-08-30T05:36:43;98579.94;;;19.24;54.30
38033;BME280;23841;48.524;1.342;2023-08-30T05:39:10;98583.50;;;19.24;54.39
38033;BME280;23841;48.524;1.342;2023-08-30T05:41:37;98588.88;;;19.24;54.58
38033;BME280;23841;48.524;1.342;2023-08-30T05:44:03;98579.94;;;19.24;54.54
38033;BME280;23841;48.524;1.342;2023-08-30T05:46:31;98575.41;;;19.24;54.78
38033;BME280;23841;48.524;1.342;2023-08-30T05:48:58;98581.69;;;19.25;54.66
38033;BME280;23841;48.524;1.342;2023-08-30T05:51:26;98575.41;;;19.24;54.63
38033;BME280;23841;48.524;1.342;2023-08-30T05:53:52;98574.56;;;19.24;54.69
38033;BME280;23841;48.524;1.342;2023-08-30T05:56:18;98579.94;;;19.24;54.70
38033;BME280;23841;48.524;1.342;2023-08-30T05:58:43;98583.59;;;19.23;54.81
38033;BME280;23841;48.524;1.342;2023-08-30T06:01:11;98580.06;;;19.22;54.66
38033;BME280;23841;48.524;1.342;2023-08-30T06:03:37;98577.38;;;19.22;54.55
38033;BME280;23841;48.524;1.342;2023-08-30T06:06:03;98585.56;;;19.21;54.57
38033;BME280;23841;48.524;1.342;2023-08-30T06:08:29;98575.53;;;19.23;54.53
38033;BME280;23841;48.524;1.342;2023-08-30T06:10:55;98582.66;;;19.24;54.56
38033;BME280;23841;48.524;1.342;2023-08-30T06:13:20;98581.88;;;19.22;54.74
38033;BME280;23841;48.524;1.342;2023-08-30T06:15:50;98586.41;;;19.21;54.71
38033;BME280;23841;48.524;1.342;2023-08-30T06:18:16;98580.06;;;19.22;54.66
38033;BME280;23841;48.524;1.342;2023-08-30T06:20:43;98580.19;;;19.21;54.84
38033;BME280;23841;48.524;1.342;2023-08-30T06:23:14;98584.56;;;19.22;54.90
38033;BME280;23841;48.524;1.342;2023-08-30T06:25:41;98592.63;;;19.22;54.66
38033;BME280;23841;48.524;1.342;2023-08-30T06:28:07;98592.63;;;19.22;54.87
38033;BME280;23841;48.524;1.342;2023-08-30T06:30:33;98591.78;;;19.21;54.81
38033;BME280;23841;48.524;1.342;2023-08-30T06:32:59;98595.34;;;19.22;55.01
38033;BME280;23841;48.524;1.342;2023-08-30T06:35:25;98598.03;;;19.22;55.05
38033;BME280;23841;48.524;1.342;2023-08-30T06:37:52;98596.31;;;19.21;54.92
38033;BME280;23841;48.524;1.342;2023-08-30T06:40:18;98602.56;;;19.21;55.01
38033;BME280;23841;48.524;1.342;2023-08-30T06:42:44;98602.56;;;19.21;54.79
38033;BME280;23841;48.524;1.342;2023-08-30T06:45:11;98600.81;;;19.20;55.00
38033;BME280;23841;48.524;1.342;2023-08-30T06:47:36;98596.31;;;19.21;55.06
38033;BME280;23841;48.524;1.342;2023-08-30T06:50:02;98599.03;;;19.21;55.24
38033;BME280;23841;48.524;1.342;2023-08-30T06:52:29;98600.81;;;19.20;55.30
38033;BME280;23841;48.524;1.342;2023-08-30T06:54:55;98596.31;;;19.21;55.16
38033;BME280;23841;48.524;1.342;2023-08-30T06:57:21;98602.66;;;19.20;55.32
38033;BME280;23841;48.524;1.342;2023-08-30T06:59:47;98600.81;;;19.20;55.52
38033;BME280;23841;48.524;1.342;2023-08-30T07:02:14;98602.56;;;19.21;55.26
38033;BME280;23841;48.524;1.342;2023-08-30T07:04:39;98605.34;;;19.20;55.52
38033;BME280;23841;48.524;1.342;2023-08-30T07:07:05;98599.13;;;19.19;55.32
38033;BME280;23841;48.524;1.342;2023-08-30T07:09:31;98610.75;;;19.20;55.42
38033;BME280;23841;48.524;1.342;2023-08-30T07:11:59;98614.28;;;19.20;55.56
38033;BME280;23841;48.524;1.342;2023-08-30T07:14:25;98618.81;;;19.20;55.58
38033;BME280;23841;48.524;1.342;2023-08-30T07:16:53;98623.25;;;19.21;55.52
38033;BME280;23841;48.524;1.342;2023-08-30T07:19:19;98620.66;;;19.19;55.49
38033;BME280;23841;48.524;1.342;2023-08-30T07:21:45;98628.63;;;19.21;55.57
38033;BME280;23841;48.524;1.342;2023-08-30T07:24:11;98622.38;;;19.20;55.61
38033;BME280;23841;48.524;1.342;2023-08-30T07:26:38;98618.72;;;19.21;55.57
38033;BME280;23841;48.524;1.342;2023-08-30T07:29:04;98618.81;;;19.20;55.30
38033;BME280;23841;48.524;1.342;2023-08-30T07:31:31;98620.66;;;19.19;55.45
38033;BME280;23841;48.524;1.342;2023-08-30T07:33:57;98626.91;;;19.20;55.75
38033;BME280;23841;48.524;1.342;2023-08-30T07:36:23;98621.50;;;19.20;55.34
38033;BME280;23841;48.524;1.342;2023-08-30T07:38:49;98610.75;;;19.20;55.29
38033;BME280;23841;48.524;1.342;2023-08-30T07:41:15;98610.75;;;19.20;55.42
38033;BME280;23841;48.524;1.342;2023-08-30T07:43:40;98612.59;;;19.19;55.54
38033;BME280;23841;48.524;1.342;2023-08-30T07:46:09;98616.13;;;19.20;55.36
38033;BME280;23841;48.524;1.342;2023-08-30T07:48:38;98609.00;;;19.19;55.84
38033;BME280;23841;48.524;1.342;2023-08-30T07:51:03;98609.00;;;19.19;55.84
38033;BME280;23841;48.524;1.342;2023-08-30T07:53:30;98607.09;;;19.21;55.68
38033;BME280;23841;48.524;1.342;2023-08-30T07:55:55;98609.78;;;19.21;55.44
38033;BME280;23841;48.524;1.342;2023-08-30T07:58:25;98616.13;;;19.20;55.63
38033;BME280;23841;48.524;1.342;2023-08-30T08:00:52;98605.34;;;19.20;55.69
38033;BME280;23841;48.524;1.342;2023-08-30T08:03:20;98610.84;;;19.18;55.75
38033;BME280;23841;48.524;1.342;2023-08-30T08:05:47;98611.72;;;19.19;55.86
38033;BME280;23841;48.524;1.342;2023-08-30T08:08:13;98617.09;;;19.19;55.68
38033;BME280;23841;48.524;1.342;2023-08-30T08:10:42;98617.97;;;19.19;55.59
38033;BME280;23841;48.524;1.342;2023-08-30T08:13:09;98613.53;;;19.18;55.54
38033;BME280;23841;48.524;1.342;2023-08-30T08:15:34;98617.09;;;19.19;55.56
38033;BME280;23841;48.524;1.342;2023-08-30T08:18:01;98620.66;;;19.19;55.44
38033;BME280;23841;48.524;1.342;2023-08-30T08:20:28;98610.09;;;19.16;55.63
38033;BME280;23841;48.524;1.342;2023-08-30T08:22:56;98621.50;;;19.20;55.57
38033;BME280;23841;48.524;1.342;2023-08-30T08:25:22;98626.91;;;19.20;55.65
38033;BME280;23841;48.524;1.342;2023-08-30T08:27:49;98623.34;;;19.19;55.60
38033;BME280;23841;48.524;1.342;2023-08-30T08:30:17;98620.66;;;19.19;55.61
38033;BME280;23841;48.524;1.342;2023-08-30T08:32:46;98631.44;;;19.19;55.86
38033;BME280;23841;48.524;1.342;2023-08-30T08:35:14;98626.06;;;19.19;55.72
38033;BME280;23841;48.524;1.342;2023-08-30T08:37:40;98630.56;;;19.19;55.91
38033;BME280;23841;48.524;1.342;2023-08-30T08:40:06;98627.84;;;19.19;55.63
38033;BME280;23841;48.524;1.342;2023-08-30T08:42:35;98634.19;;;19.18;56.02
38033;BME280;23841;48.524;1.342;2023-08-30T08:45:04;98636.81;;;19.19;55.83
38033;BME280;23841;48.524;1.342;2023-08-30T08:47:31;98631.63;;;19.16;55.60
38033;BME280;23841;48.524;1.342;2023-08-30T08:49:58;98635.94;;;19.19;55.76
38033;BME280;23841;48.524;1.342;2023-08-30T08:52:25;98639.69;;;19.16;55.80
38033;BME280;23841;48.524;1.342;2023-08-30T08:54:52;98632.50;;;19.17;55.77
38033;BME280;23841;48.524;1.342;2023-08-30T08:57:20;98648.66;;;19.17;55.40
38033;BME280;23841;48.524;1.342;2023-08-30T08:59:46;98647.66;;;19.18;55.42
38033;BME280;23841;48.524;1.342;2023-08-30T09:02:14;98647.75;;;19.16;55.51
38033;BME280;23841;48.524;1.342;2023-08-30T09:04:40;98650.34;;;19.18;55.32
38033;BME280;23841;48.524;1.342;2023-08-30T09:07:08;98654.03;;;19.17;55.10
38033;BME280;23841;48.524;1.342;2023-08-30T09:09:34;98659.41;;;19.17;55.08
38033;BME280;23841;48.524;1.342;2023-08-30T09:12:03;98650.47;;;19.16;55.24
38033;BME280;23841;48.524;1.342;2023-08-30T09:14:29;98659.41;;;19.17;55.09
38033;BME280;23841;48.524;1.342;2023-08-30T09:17:00;98650.56;;;19.15;55.14
38033;BME280;23841;48.524;1.342;2023-08-30T09:19:26;98654.03;;;19.17;55.16
38033;BME280;23841;48.524;1.342;2023-08-30T09:21:53;98645.19;;;19.15;55.19
38033;BME280;23841;48.524;1.342;2023-08-30T09:24:19;98643.44;;;19.14;55.05
38033;BME280;23841;48.524;1.342;2023-08-30T09:26:53;98647.88;;;19.15;55.22
38033;BME280;23841;48.524;1.342;2023-08-30T09:29:22;98638.06;;;19.14;55.20
38033;BME280;23841;48.524;1.342;2023-08-30T09:31:52;98652.31;;;19.16;54.93
38033;BME280;23841;48.524;1.342;2023-08-30T09:34:24;98650.56;;;19.15;55.14
38033;BME280;23841;48.524;1.342;2023-08-30T09:36:54;98646.06;;;19.15;54.93
38033;BME280;23841;48.524;1.342;2023-08-30T09:39:20;98642.50;;;19.15;54.98
38033;BME280;23841;48.524;1.342;2023-08-30T09:41:49;98647.88;;;19.15;55.12
38033;BME280;23841;48.524;1.342;2023-08-30T09:44:18;98641.75;;;19.13;55.03
38033;BME280;23841;48.524;1.342;2023-08-30T09:46:48;98646.25;;;19.12;55.10
38033;BME280;23841;48.524;1.342;2023-08-30T09:49:14;98641.75;;;19.13;54.91
38033;BME280;23841;48.524;1.342;2023-08-30T09:51:41;98647.13;;;19.13;54.67
38033;BME280;23841;48.524;1.342;2023-08-30T09:54:23;98651.53;;;19.14;54.57
38033;BME280;23841;48.524;1.342;2023-08-30T09:56:49;98642.69;;;19.12;54.68
38033;BME280;23841;48.524;1.342;2023-08-30T09:59:18;98650.78;;;19.12;54.33
38033;BME280;23841;48.524;1.342;2023-08-30T10:01:47;98651.53;;;19.14;54.36
38033;BME280;23841;48.524;1.342;2023-08-30T10:04:19;98655.94;;;19.15;54.48
38033;BME280;23841;48.524;1.342;2023-08-30T10:06:45;98642.59;;;19.13;54.37
38033;BME280;23841;48.524;1.342;2023-08-30T10:09:12;98645.41;;;19.12;54.56
38033;BME280;23841;48.524;1.342;2023-08-30T10:11:39;98635.38;;;19.14;54.48
38033;BME280;23841;48.524;1.342;2023-08-30T10:14:07;98638.06;;;19.14;54.40
38033;BME280;23841;48.524;1.342;2023-08-30T10:16:47;98638.16;;;19.12;54.26
38033;BME280;23841;48.524;1.342;2023-08-30T10:19:24;98642.59;;;19.13;54.26
38033;BME280;23841;48.524;1.342;2023-08-30T10:22:09;98643.44;;;19.14;54.27
38033;BME280;23841;48.524;1.342;2023-08-30T10:24:49;98636.38;;;19.13;54.03
38033;BME280;23841;48.524;1.342;2023-08-30T10:27:17;98640.88;;;19.12;54.20
38033;BME280;23841;48.524;1.342;2023-08-30T10:29:44;98630.97;;;19.13;54.35
38033;BME280;23841;48.524;1.342;2023-08-30T10:32:11;98635.47;;;19.12;54.04
38033;BME280;23841;48.524;1.342;2023-08-30T10:34:36;98638.06;;;19.14;53.98
38033;BME280;23841;48.524;1.342;2023-08-30T10:37:06;98636.25;;;19.14;54.01
38033;BME280;23841;48.524;1.342;2023-08-30T10:39:35;98638.94;;;19.14;54.23
38033;BME280;23841;48.524;1.342;2023-08-30T10:42:10;98640.75;;;19.14;54.21
38033;BME280;23841;48.524;1.342;2023-08-30T10:45:07;98643.44;;;19.14;53.97
38033;BME280;23841;48.524;1.342;2023-08-30T10:47:34;98638.06;;;19.14;54.16
38033;BME280;23841;48.524;1.342;2023-08-30T10:50:06;98634.53;;;19.13;53.78
38033;BME280;23841;48.524;1.342;2023-08-30T10:52:32;98636.38;;;19.13;53.69
38033;BME280;23841;48.524;1.342;2023-08-30T10:55:08;98638.94;;;19.14;53.47
38033;BME280;23841;48.524;1.342;2023-08-30T10:57:34;98644.22;;;19.16;53.41
38033;BME280;23841;48.524;1.342;2023-08-30T11:00:19;98629.03;;;19.15;53.09
38033;BME280;23841;48.524;1.342;2023-08-30T11:02:48;98634.41;;;19.15;53.45
38033;BME280;23841;48.524;1.342;2023-08-30T11:05:15;98626.34;;;19.15;53.42
38033;BME280;23841;48.524;1.342;2023-08-30T11:07:42;98627.22;;;19.15;53.00
38033;BME280;23841;48.524;1.342;2023-08-30T11:10:08;98626.22;;;19.16;53.37
38033;BME280;23841;48.524;1.342;2023-08-30T11:12:34;98619.16;;;19.15;53.33
38033;BME280;23841;48.524;1.342;2023-08-30T11:15:00;98626.34;;;19.15;52.72
38033;BME280;23841;48.524;1.342;2023-08-30T11:17:27;98635.09;;;19.18;52.82
38033;BME280;23841;48.524;1.342;2023-08-30T11:20:06;98632.38;;;19.18;52.92
38033;BME280;23841;48.524;1.342;2023-08-30T11:22:32;98633.25;;;19.19;52.71
38033;BME280;23841;48.524;1.342;2023-08-30T11:24:58;98635.19;;;19.17;52.62
38033;BME280;23841;48.524;1.342;2023-08-30T11:27:24;98632.28;;;19.20;52.20
38033;BME280;23841;48.524;1.342;2023-08-30T11:29:49;98634.00;;;19.21;52.32
38033;BME280;23841;48.524;1.342;2023-08-30T11:32:16;98644.78;;;19.21;52.13
38033;BME280;23841;48.524;1.342;2023-08-30T11:34:41;98637.66;;;19.20;52.09
38033;BME280;23841;48.524;1.342;2023-08-30T11:37:07;98640.34;;;19.20;52.14
38033;BME280;23841;48.524;1.342;2023-08-30T11:39:33;98633.13;;;19.20;52.26
38033;BME280;23841;48.524;1.342;2023-08-30T11:41:59;98629.59;;;19.20;52.37
38033;BME280;23841;48.524;1.342;2023-08-30T11:44:28;98627.00;;;19.18;52.13
38033;BME280;23841;48.524;1.342;2023-08-30T11:46:58;98626.91;;;19.20;52.30
38033;BME280;23841;48.524;1.342;2023-08-30T11:49:24;98623.25;;;19.21;52.36
38033;BME280;23841;48.524;1.342;2023-08-30T11:51:50;98634.00;;;19.21;52.06
38033;BME280;23841;48.524;1.342;2023-08-30T11:54:19;98631.44;;;19.19;52.02
38033;BME280;23841;48.524;1.342;2023-08-30T11:56:45;98635.81;;;19.20;51.96
38033;BME280;23841;48.524;1.342;2023-08-30T11:59:21;98639.28;;;19.22;51.90
38033;BME280;23841;48.524;1.342;2023-08-30T12:01:47;98631.31;;;19.21;52.17
38033;BME280;23841;48.524;1.342;2023-08-30T12:04:13;98631.31;;;19.21;51.89
38033;BME280;23841;48.524;1.342;2023-08-30T12:06:39;98635.72;;;19.22;52.15
38033;BME280;23841;48.524;1.342;2023-08-30T12:09:04;98634.75;;;19.23;52.21
38033;BME280;23841;48.524;1.342;2023-08-30T12:11:33;98630.25;;;19.23;52.19
38033;BME280;23841;48.524;1.342;2023-08-30T12:14:02;98636.50;;;19.24;52.07
38033;BME280;23841;48.524;1.342;2023-08-30T12:16:28;98630.69;;;19.30;52.64
38033;BME280;23841;48.524;1.342;2023-08-30T12:18:53;98632.00;;;19.37;52.91
38033;BME280;23841;48.524;1.342;2023-08-30T12:21:19;98632.63;;;19.41;53.61
38033;BME280;23841;48.524;1.342;2023-08-30T12:23:45;98632.41;;;19.44;53.73
38033;BME280;23841;48.524;1.342;2023-08-30T12:26:12;98630.38;;;19.48;53.87
38033;BME280;23841;48.524;1.342;2023-08-30T12:28:48;98633.19;;;19.46;53.00
38033;BME280;23841;48.524;1.342;2023-08-30T12:31:15;98630.78;;;19.41;51.83
38033;BME280;23841;48.524;1.342;2023-08-30T12:33:40;98632.75;;;19.39;51.67
38033;BME280;23841;48.524;1.342;2023-08-30T12:36:06;98637.28;;;19.39;52.25
38033;BME280;23841;48.524;1.342;2023-08-30T12:38:31;98641.56;;;19.41;52.10
38033;BME280;23841;48.524;1.342;2023-08-30T12:40:57;98638.13;;;19.39;51.95
38033;BME280;23841;48.524;1.342;2023-08-30T12:43:23;98645.38;;;19.39;51.75
38033;BME280;23841;48.524;1.342;2023-08-30T12:45:50;98642.56;;;19.40;51.96
38033;BME280;23841;48.524;1.342;2023-08-30T12:48:17;98634.69;;;19.37;51.64
38033;BME280;23841;48.524;1.342;2023-08-30T12:50:45;98642.78;;;19.37;51.82
38033;BME280;23841;48.524;1.342;2023-08-30T12:53:11;98641.78;;;19.38;52.02
38033;BME280;23841;48.524;1.342;2023-08-30T12:55:37;98628.31;;;19.38;52.16
38033;BME280;23841;48.524;1.342;2023-08-30T12:58:06;98630.16;;;19.38;51.86
38033;BME280;23841;48.524;1.342;2023-08-30T13:00:32;98629.31;;;19.37;51.86
38033;BME280;23841;48.524;1.342;2023-08-30T13:02:58;98640.94;;;19.38;51.83
38033;BME280;23841;48.524;1.342;2023-08-30T13:05:24;98632.00;;;19.37;51.74
38033;BME280;23841;48.524;1.342;2023-08-30T13:07:50;98634.69;;;19.37;51.31